createdAt,value
2023-05-05T00:01:25.236Z,10.60
2023-05-05T00:03:53.644Z,10.60
2023-05-05T00:06:23.398Z,10.50
2023-05-05T00:08:52.948Z,10.50
2023-05-05T00:11:21.246Z,10.60
2023-05-05T00:13:49.906Z,10.50
2023-05-05T00:16:18.577Z,10.50
2023-05-05T00:18:47.335Z,10.50
2023-05-05T00:21:15.764Z,10.50
2023-05-05T00:23:44.492Z,10.50
2023-05-05T00:26:14.444Z,10.40
2023-05-05T00:28:44.833Z,10.40
2023-05-05T00:31:13.191Z,10.40
2023-05-05T00:33:41.944Z,10.40
2023-05-05T00:36:10.502Z,10.40
2023-05-05T00:38:39.132Z,10.30
2023-05-05T00:41:07.660Z,10.30
2023-05-05T00:43:37.767Z,10.30
2023-05-05T00:46:20.138Z,10.20
2023-05-05T00:48:48.774Z,10.20
2023-05-05T00:51:17.675Z,10.20
2023-05-05T00:53:46.663Z,10.20
2023-05-05T00:56:15.682Z,10.20
2023-05-05T00:58:45.822Z,10.20
2023-05-05T01:01:15.417Z,10.20
2023-05-05T01:03:44.172Z,10.20
2023-05-05T01:06:29.145Z,10.20
2023-05-05T01:09:07.568Z,10.20
2023-05-05T01:11:43.230Z,10.20
2023-05-05T01:14:17.724Z,10.20
2023-05-05T01:16:55.398Z,10.20
2023-05-05T01:19:52.036Z,10.20
2023-05-05T01:22:25.821Z,10.20
2023-05-05T01:25:17.883Z,10.20
2023-05-05T01:27:59.508Z,10.30
2023-05-05T01:30:50.925Z,10.20
2023-05-05T01:33:26.040Z,10.30
2023-05-05T01:35:57.230Z,10.30
2023-05-05T01:38:33.421Z,10.30
2023-05-05T01:41:12.063Z,10.40
2023-05-05T01:43:45.744Z,10.30
2023-05-05T01:46:16.228Z,10.30
2023-05-05T01:48:48.755Z,10.30
2023-05-05T01:51:18.961Z,10.30
2023-05-05T01:53:48.014Z,10.20
2023-05-05T01:56:17.499Z,10.20
2023-05-05T01:58:47.663Z,10.10
2023-05-05T02:01:17.228Z,10.10
2023-05-05T02:03:48.790Z,10.10
2023-05-05T02:06:19.233Z,10.10
2023-05-05T02:08:49.976Z,10.10
2023-05-05T02:11:19.425Z,10.00
2023-05-05T02:13:49.983Z,9.90
2023-05-05T02:16:21.421Z,9.90
2023-05-05T02:18:51.862Z,9.90
2023-05-05T02:21:20.943Z,9.90
2023-05-05T02:23:51.864Z,9.80
2023-05-05T02:26:23.201Z,9.70
2023-05-05T02:28:58.271Z,9.60
2023-05-05T02:31:29.518Z,9.60
2023-05-05T02:34:01.513Z,9.50
2023-05-05T02:36:39.665Z,9.40
2023-05-05T02:39:14.561Z,9.30
2023-05-05T02:41:46.166Z,9.30
2023-05-05T02:44:25.676Z,9.30
2023-05-05T02:46:55.864Z,9.30
2023-05-05T02:49:26.694Z,9.30
2023-05-05T02:52:00.139Z,9.30
2023-05-05T02:54:33.696Z,9.30
2023-05-05T02:57:06.210Z,9.30
2023-05-05T02:59:47.359Z,9.20
2023-05-05T03:02:25.669Z,9.20
2023-05-05T03:04:58.472Z,9.20
2023-05-05T03:07:35.884Z,9.20
2023-05-05T03:10:09.598Z,9.20
2023-05-05T03:12:47.846Z,9.10
2023-05-05T03:15:32.800Z,9.10
2023-05-05T03:18:04.351Z,9.10
2023-05-05T03:20:34.188Z,9.10
2023-05-05T03:23:08.442Z,9.10
2023-05-05T03:25:44.636Z,9.10
2023-05-05T03:28:19.741Z,9.10
2023-05-05T03:30:48.372Z,9.10
2023-05-05T03:33:18.476Z,9.10
2023-05-05T03:35:48.281Z,9.10
2023-05-05T03:38:17.078Z,9.10
2023-05-05T03:40:46.575Z,9.10
2023-05-05T03:43:19.603Z,9.10
2023-05-05T03:45:50.403Z,9.10
2023-05-05T03:48:19.275Z,9.20
2023-05-05T03:50:49.908Z,9.20
2023-05-05T03:53:20.560Z,9.30
2023-05-05T03:55:49.413Z,9.30
2023-05-05T03:58:17.906Z,9.30
2023-05-05T04:00:46.426Z,9.30
2023-05-05T04:03:15.185Z,9.30
2023-05-05T04:05:44.206Z,9.30
2023-05-05T04:08:14.358Z,9.30
2023-05-05T04:10:42.752Z,9.30
2023-05-05T04:13:11.980Z,9.30
2023-05-05T04:15:45.943Z,9.30
2023-05-05T04:18:14.898Z,9.30
2023-05-05T04:20:43.911Z,9.30
2023-05-05T04:23:14.682Z,9.30
2023-05-05T04:25:43.921Z,9.30
2023-05-05T04:28:17.544Z,9.30
2023-05-05T04:30:46.668Z,9.30
2023-05-05T04:33:15.361Z,9.30
2023-05-05T04:35:43.827Z,9.30
2023-05-05T04:38:12.340Z,9.30
2023-05-05T04:40:42.274Z,9.40
2023-05-05T04:43:12.220Z,9.40
2023-05-05T04:45:41.345Z,9.50
2023-05-05T04:48:09.798Z,9.60
2023-05-05T04:50:38.333Z,9.70
2023-05-05T04:53:06.775Z,9.70
2023-05-05T04:55:35.458Z,9.80
2023-05-05T04:58:05.335Z,9.90
2023-05-05T05:00:33.706Z,9.90
2023-05-05T05:03:02.774Z,10.00
2023-05-05T05:05:31.359Z,10.00
2023-05-05T05:07:59.862Z,10.10
2023-05-05T05:10:28.429Z,10.10
2023-05-05T05:12:56.883Z,10.20
2023-05-05T05:15:27.124Z,10.20
2023-05-05T05:17:55.551Z,10.30
2023-05-05T05:20:24.573Z,10.60
2023-05-05T05:22:53.371Z,10.90
2023-05-05T05:25:23.154Z,11.20
2023-05-05T05:28:05.743Z,11.50
2023-05-05T05:30:40.002Z,11.60
2023-05-05T05:33:10.688Z,11.90
2023-05-05T05:35:39.517Z,12.30
2023-05-05T05:38:08.124Z,12.60
2023-05-05T05:40:37.338Z,12.80
2023-05-05T05:43:05.804Z,13.10
2023-05-05T05:45:35.298Z,13.30
2023-05-05T05:48:07.889Z,13.70
2023-05-05T05:50:36.588Z,14.00
2023-05-05T05:53:05.689Z,14.20
2023-05-05T05:55:34.318Z,14.20
2023-05-05T05:58:03.234Z,14.10
2023-05-05T06:00:32.025Z,14.10
2023-05-05T06:03:08.186Z,14.10
2023-05-05T06:05:39.344Z,14.10
2023-05-05T06:08:08.262Z,14.20
2023-05-05T06:10:42.002Z,14.20
2023-05-05T06:13:15.851Z,14.20
2023-05-05T06:15:47.788Z,14.20
2023-05-05T06:18:18.578Z,14.30
2023-05-05T06:20:50.521Z,14.30
2023-05-05T06:23:20.789Z,14.30
2023-05-05T06:25:55.009Z,14.40
2023-05-05T06:28:23.394Z,14.50
2023-05-05T06:30:51.757Z,14.60
2023-05-05T06:33:21.541Z,14.70
2023-05-05T06:35:50.136Z,14.90
2023-05-05T06:38:18.620Z,15.10
2023-05-05T06:40:49.567Z,15.20
2023-05-05T06:43:18.454Z,15.40
2023-05-05T06:45:53.754Z,15.60
2023-05-05T06:48:23.567Z,15.80
2023-05-05T06:50:52.008Z,15.90
2023-05-05T06:53:20.430Z,16.10
2023-05-05T06:55:49.105Z,16.20
2023-05-05T06:58:17.426Z,16.20
2023-05-05T07:00:46.173Z,16.30
2023-05-05T07:03:15.124Z,16.40
2023-05-05T07:05:45.157Z,16.60
2023-05-05T07:08:14.258Z,16.90
2023-05-05T07:10:42.898Z,17.10
2023-05-05T07:13:11.307Z,17.40
2023-05-05T07:15:46.169Z,17.70
2023-05-05T07:18:14.646Z,17.80
2023-05-05T07:20:45.291Z,18.00
2023-05-05T07:23:14.081Z,18.00
2023-05-05T07:25:42.616Z,18.20
2023-05-05T07:28:11.299Z,18.40
2023-05-05T07:30:39.753Z,18.50
2023-05-05T07:33:08.145Z,18.60
2023-05-05T07:35:37.040Z,18.70
2023-05-05T07:38:07.715Z,18.80
2023-05-05T07:40:37.471Z,18.90
2023-05-05T07:43:05.839Z,19.10
2023-05-05T07:45:34.591Z,19.20
2023-05-05T07:48:03.137Z,19.20
2023-05-05T07:50:31.672Z,19.30
2023-05-05T07:53:10.910Z,19.50
2023-05-05T07:55:43.941Z,19.60
2023-05-05T07:58:12.415Z,19.80
2023-05-05T08:00:41.265Z,19.90
2023-05-05T08:03:11.603Z,20.00
2023-05-05T08:05:40.854Z,20.10
2023-05-05T08:08:09.416Z,20.20
2023-05-05T08:10:37.870Z,20.30
2023-05-05T08:13:07.752Z,20.40
2023-05-05T08:15:36.272Z,20.50
2023-05-05T08:18:04.780Z,20.70
2023-05-05T08:20:33.298Z,20.80
2023-05-05T08:23:01.664Z,20.80
2023-05-05T08:25:30.123Z,20.90
2023-05-05T08:27:58.497Z,21.10
2023-05-05T08:30:31.579Z,21.20
2023-05-05T08:33:00.582Z,21.30
2023-05-05T08:35:29.065Z,21.30
2023-05-05T08:37:59.123Z,21.60
2023-05-05T08:40:33.953Z,21.80
2023-05-05T08:43:02.655Z,22.00
2023-05-05T08:45:33.262Z,22.20
2023-05-05T08:48:03.030Z,22.40
2023-05-05T08:50:32.240Z,22.60
2023-05-05T08:53:10.300Z,22.80
2023-05-05T08:55:47.431Z,22.90
2023-05-05T08:58:18.655Z,23.00
2023-05-05T09:00:48.658Z,23.20
2023-05-05T09:03:18.090Z,23.10
2023-05-05T09:05:46.650Z,22.80
2023-05-05T09:08:15.512Z,22.20
2023-05-05T09:10:44.870Z,21.70
2023-05-05T09:13:13.733Z,21.30
2023-05-05T09:15:42.572Z,21.00
2023-05-05T09:18:13.111Z,20.80
2023-05-05T09:20:42.561Z,20.50
2023-05-05T09:23:12.534Z,20.30
2023-05-05T09:25:41.693Z,20.50
2023-05-05T09:28:11.405Z,20.80
2023-05-05T09:30:40.815Z,21.10
2023-05-05T09:33:09.716Z,21.50
2023-05-05T09:35:53.682Z,22.00
2023-05-05T09:38:24.004Z,22.40
2023-05-05T09:40:54.051Z,22.70
2023-05-05T09:43:24.512Z,23.10
2023-05-05T09:45:52.973Z,23.40
2023-05-05T09:48:26.434Z,23.40
2023-05-05T09:50:57.113Z,23.30
2023-05-05T09:53:27.482Z,22.90
2023-05-05T09:55:56.918Z,22.60
2023-05-05T09:58:26.953Z,22.20
2023-05-05T10:00:56.476Z,21.80
2023-05-05T10:03:25.193Z,21.50
2023-05-05T10:05:54.587Z,21.30
2023-05-05T10:08:26.983Z,21.20
2023-05-05T10:10:57.533Z,21.10
2023-05-05T10:13:26.296Z,21.10
2023-05-05T10:15:56.234Z,21.10
2023-05-05T10:18:26.497Z,21.10
2023-05-05T10:20:59.250Z,21.10
2023-05-05T10:23:37.322Z,21.00
2023-05-05T10:26:08.728Z,21.10
2023-05-05T10:28:45.643Z,21.20
2023-05-05T10:31:25.698Z,21.50
2023-05-05T10:33:59.176Z,21.90
2023-05-05T10:36:28.554Z,22.10
2023-05-05T10:38:58.739Z,22.20
2023-05-05T10:41:27.683Z,22.30
2023-05-05T10:43:57.777Z,22.40
2023-05-05T10:46:27.902Z,22.20
2023-05-05T10:49:02.928Z,22.10
2023-05-05T10:51:41.618Z,22.00
2023-05-05T10:54:17.528Z,21.90
2023-05-05T10:56:47.106Z,21.80
2023-05-05T10:59:45.324Z,21.60
2023-05-05T11:02:21.105Z,21.50
2023-05-05T11:05:05.415Z,21.30
2023-05-05T11:07:52.366Z,21.00
2023-05-05T11:10:23.267Z,20.90
2023-05-05T11:13:28.558Z,20.70
2023-05-05T11:15:58.161Z,20.40
2023-05-05T11:18:43.292Z,19.90
2023-05-05T11:21:16.563Z,19.40
2023-05-05T11:23:47.131Z,18.90
2023-05-05T11:26:19.123Z,18.50
2023-05-05T11:28:59.861Z,18.30
2023-05-05T11:31:28.765Z,18.10
2023-05-05T11:34:17.424Z,17.90
2023-05-05T11:36:45.879Z,17.80
2023-05-05T11:39:24.534Z,17.80
2023-05-05T11:42:17.158Z,18.00
2023-05-05T11:44:45.777Z,18.20
2023-05-05T11:47:29.832Z,18.30
2023-05-05T11:49:58.490Z,18.50
2023-05-05T11:52:30.943Z,18.70
2023-05-05T11:55:03.778Z,18.80
2023-05-05T11:57:33.787Z,18.90
2023-05-05T12:00:04.771Z,18.90
2023-05-05T12:02:35.527Z,18.90
2023-05-05T12:05:04.845Z,18.90
2023-05-05T12:07:34.445Z,18.90
2023-05-05T12:10:02.929Z,19.00
2023-05-05T12:12:41.362Z,19.30
2023-05-05T12:15:10.933Z,19.60
2023-05-05T12:17:42.713Z,20.00
2023-05-05T12:20:13.086Z,20.50
2023-05-05T12:22:41.928Z,20.90
2023-05-05T12:25:11.502Z,21.00
2023-05-05T12:27:41.276Z,21.00
2023-05-05T12:30:15.756Z,21.00
2023-05-05T12:32:44.885Z,20.80
2023-05-05T12:35:14.782Z,20.70
2023-05-05T12:37:44.089Z,20.60
2023-05-05T12:40:46.426Z,20.60
2023-05-05T12:43:32.024Z,20.50
2023-05-05T12:46:02.589Z,20.50
2023-05-05T12:48:31.519Z,20.50
2023-05-05T12:51:17.759Z,20.40
2023-05-05T12:53:46.597Z,20.40
2023-05-05T12:56:37.564Z,20.30
2023-05-05T12:59:08.865Z,20.10
2023-05-05T13:01:39.057Z,20.00
2023-05-05T13:04:09.630Z,20.00
2023-05-05T13:06:38.805Z,19.90
2023-05-05T13:09:07.557Z,19.80
2023-05-05T13:11:37.333Z,19.80
2023-05-05T13:14:08.031Z,19.70
2023-05-05T13:16:36.594Z,19.70
2023-05-05T13:19:04.945Z,19.60
2023-05-05T13:21:33.537Z,19.70
2023-05-05T13:24:19.805Z,19.80
2023-05-05T13:26:50.566Z,20.00
2023-05-05T13:29:20.543Z,20.70
2023-05-05T13:31:49.912Z,21.70
2023-05-05T13:34:19.054Z,22.60
2023-05-05T13:36:47.782Z,23.10
2023-05-05T13:39:16.261Z,23.30
2023-05-05T13:41:45.668Z,23.40
2023-05-05T13:44:14.733Z,23.30
2023-05-05T13:46:44.749Z,23.30
2023-05-05T13:49:13.314Z,23.20
2023-05-05T13:51:41.721Z,23.10
2023-05-05T13:54:10.452Z,23.10
2023-05-05T13:56:39.200Z,23.10
2023-05-05T13:59:07.534Z,23.10
2023-05-05T14:01:36.011Z,23.30
2023-05-05T14:04:06.201Z,23.70
2023-05-05T14:06:35.655Z,23.90
2023-05-05T14:09:06.269Z,23.50
2023-05-05T14:11:35.230Z,23.20
2023-05-05T14:14:03.788Z,23.00
2023-05-05T14:16:32.385Z,22.90
2023-05-05T14:19:00.793Z,22.70
2023-05-05T14:21:31.681Z,22.70
2023-05-05T14:24:00.251Z,22.60
2023-05-05T14:26:29.089Z,22.60
2023-05-05T14:28:57.547Z,22.60
2023-05-05T14:31:26.091Z,22.50
2023-05-05T14:33:56.943Z,22.30
2023-05-05T14:36:25.372Z,22.10
2023-05-05T14:38:55.239Z,22.00
2023-05-05T14:41:24.817Z,22.00
2023-05-05T14:43:53.279Z,22.00
2023-05-05T14:46:21.885Z,22.00
2023-05-05T14:48:50.313Z,22.00
2023-05-05T14:51:18.987Z,22.00
2023-05-05T14:53:47.708Z,22.10
2023-05-05T14:56:17.612Z,22.20
2023-05-05T14:58:47.740Z,22.20
2023-05-05T15:01:17.844Z,22.10
2023-05-05T15:03:46.932Z,22.10
2023-05-05T15:06:16.665Z,22.00
2023-05-05T15:08:44.980Z,21.90
2023-05-05T15:11:13.772Z,21.80
2023-05-05T15:13:43.521Z,21.60
2023-05-05T15:16:12.126Z,21.50
2023-05-05T15:18:40.916Z,21.40
2023-05-05T15:21:09.484Z,21.30
2023-05-05T15:23:37.955Z,21.10
2023-05-05T15:26:06.518Z,20.90
2023-05-05T15:28:34.877Z,20.80
2023-05-05T15:31:06.303Z,20.60
2023-05-05T15:33:35.017Z,20.50
2023-05-05T15:36:03.465Z,20.30
2023-05-05T15:38:32.154Z,20.10
2023-05-05T15:41:00.596Z,20.00
2023-05-05T15:43:29.263Z,19.90
2023-05-05T15:45:57.780Z,19.80
2023-05-05T15:48:27.717Z,19.70
2023-05-05T15:50:56.198Z,19.70
2023-05-05T15:53:26.424Z,19.60
2023-05-05T15:55:54.969Z,19.60
2023-05-05T15:58:23.447Z,19.60
2023-05-05T16:00:51.908Z,19.50
2023-05-05T16:03:20.686Z,19.50
2023-05-05T16:05:50.687Z,19.50
2023-05-05T16:08:19.204Z,19.40
2023-05-05T16:10:47.573Z,19.40
2023-05-05T16:13:16.403Z,19.30
2023-05-05T16:15:46.449Z,19.30
2023-05-05T16:18:15.572Z,19.10
2023-05-05T16:20:44.094Z,19.10
2023-05-05T16:23:13.936Z,19.10
2023-05-05T16:25:42.408Z,19.00
2023-05-05T16:28:10.787Z,19.00
2023-05-05T16:30:39.944Z,18.90
2023-05-05T16:33:08.418Z,18.90
2023-05-05T16:35:37.282Z,18.80
2023-05-05T16:38:05.665Z,18.80
2023-05-05T16:40:37.683Z,18.70
2023-05-05T16:43:06.379Z,18.70
2023-05-05T16:45:34.823Z,18.60
2023-05-05T16:48:03.414Z,18.60
2023-05-05T16:50:31.877Z,18.40
2023-05-05T16:53:00.296Z,18.40
2023-05-05T16:55:28.824Z,18.40
2023-05-05T16:57:58.685Z,18.30
2023-05-05T17:00:27.580Z,18.10
2023-05-05T17:02:56.138Z,18.10
2023-05-05T17:05:25.531Z,17.90
2023-05-05T17:07:54.401Z,17.80
2023-05-05T17:10:23.267Z,17.70
2023-05-05T17:12:52.054Z,17.60
2023-05-05T17:15:22.340Z,17.50
2023-05-05T17:17:50.966Z,17.40
2023-05-05T17:20:19.528Z,17.30
2023-05-05T17:22:48.161Z,17.30
2023-05-05T17:25:16.844Z,17.10
2023-05-05T17:27:47.917Z,17.10
2023-05-05T17:30:17.672Z,17.00
2023-05-05T17:32:47.974Z,16.90
2023-05-05T17:35:16.829Z,16.80
2023-05-05T17:37:45.545Z,16.70
2023-05-05T17:40:14.720Z,16.70
2023-05-05T17:42:43.256Z,16.60
2023-05-05T17:45:12.977Z,16.60
2023-05-05T17:47:41.614Z,16.50
2023-05-05T17:50:12.705Z,16.50
2023-05-05T17:52:41.927Z,16.40
2023-05-05T17:55:11.449Z,16.30
2023-05-05T17:57:40.503Z,16.30
2023-05-05T18:00:10.364Z,16.20
2023-05-05T18:02:42.158Z,16.10
2023-05-05T18:05:13.411Z,16.10
2023-05-05T18:07:45.809Z,16.10
2023-05-05T18:10:14.946Z,16.10
2023-05-05T18:12:44.809Z,16.00
2023-05-05T18:15:13.751Z,16.00
2023-05-05T18:17:42.442Z,15.90
2023-05-05T18:20:13.214Z,15.80
2023-05-05T18:22:41.865Z,15.70
2023-05-05T18:25:11.046Z,15.60
2023-05-05T18:27:41.209Z,15.50
2023-05-05T18:30:10.493Z,15.50
2023-05-05T18:32:39.345Z,15.40
2023-05-05T18:35:08.806Z,15.40
2023-05-05T18:37:46.197Z,15.40
2023-05-05T18:40:15.083Z,15.30
2023-05-05T18:42:44.532Z,15.20
2023-05-05T18:45:19.992Z,15.10
2023-05-05T18:47:48.529Z,15.00
2023-05-05T18:50:17.082Z,14.90
2023-05-05T18:52:47.005Z,14.80
2023-05-05T18:55:15.643Z,14.80
2023-05-05T18:57:44.153Z,14.80
2023-05-05T19:00:13.537Z,14.70
2023-05-05T19:02:42.125Z,14.70
2023-05-05T19:05:11.293Z,14.70
2023-05-05T19:07:47.817Z,14.70
2023-05-05T19:10:16.348Z,14.70
2023-05-05T19:12:44.997Z,14.70
2023-05-05T19:15:14.281Z,14.60
2023-05-05T19:17:43.582Z,14.60
2023-05-05T19:20:13.047Z,14.60
2023-05-05T19:22:41.596Z,14.60
2023-05-05T19:25:14.291Z,14.50
2023-05-05T19:27:43.037Z,14.50
2023-05-05T19:30:12.152Z,14.50
2023-05-05T19:32:40.640Z,14.50
2023-05-05T19:35:11.956Z,14.40
2023-05-05T19:37:48.780Z,14.40
2023-05-05T19:40:19.088Z,14.30
2023-05-05T19:42:47.774Z,14.20
2023-05-05T19:45:16.486Z,14.20
2023-05-05T19:47:46.423Z,14.10
2023-05-05T19:50:16.496Z,14.00
2023-05-05T19:52:44.933Z,14.00
2023-05-05T19:55:13.936Z,13.90
2023-05-05T19:57:43.946Z,13.90
2023-05-05T20:00:13.675Z,13.80
2023-05-05T20:02:42.548Z,13.70
2023-05-05T20:05:13.966Z,13.60
2023-05-05T20:07:42.918Z,13.60
2023-05-05T20:10:13.159Z,13.50
2023-05-05T20:12:47.942Z,13.50
2023-05-05T20:15:18.985Z,13.40
2023-05-05T20:17:47.802Z,13.30
2023-05-05T20:20:18.691Z,13.40
2023-05-05T20:22:47.838Z,13.40
2023-05-05T20:25:17.203Z,13.40
2023-05-05T20:27:46.864Z,13.50
2023-05-05T20:30:15.763Z,13.40
2023-05-05T20:32:44.457Z,13.50
2023-05-05T20:35:13.166Z,13.50
2023-05-05T20:37:42.185Z,13.50
2023-05-05T20:40:11.950Z,13.50
2023-05-05T20:42:40.931Z,13.50
2023-05-05T20:45:11.813Z,13.50
2023-05-05T20:47:40.311Z,13.60
2023-05-05T20:50:09.702Z,13.60
2023-05-05T20:52:39.587Z,13.60
2023-05-05T20:55:08.689Z,13.60
2023-05-05T20:57:37.533Z,13.60
2023-05-05T21:00:07.578Z,13.60
2023-05-05T21:02:37.800Z,13.60
2023-05-05T21:05:07.245Z,13.60
2023-05-05T21:07:35.779Z,13.70
2023-05-05T21:10:05.744Z,13.70
2023-05-05T21:12:35.430Z,13.70
2023-05-05T21:15:04.356Z,13.70
2023-05-05T21:17:32.793Z,13.70
2023-05-05T21:20:02.729Z,13.60
2023-05-05T21:22:31.161Z,13.60
2023-05-05T21:25:10.941Z,13.50
2023-05-05T21:27:39.472Z,13.50
2023-05-05T21:30:10.950Z,13.50
2023-05-05T21:32:40.621Z,13.50
2023-05-05T21:35:11.215Z,13.40
2023-05-05T21:37:40.318Z,13.40
2023-05-05T21:40:13.268Z,13.30
2023-05-05T21:42:42.422Z,13.30
2023-05-05T21:45:12.477Z,13.30
2023-05-05T21:47:41.194Z,13.30
2023-05-05T21:50:12.145Z,13.20
2023-05-05T21:52:41.398Z,13.20
2023-05-05T21:55:11.326Z,13.20
2023-05-05T21:57:39.948Z,13.20
2023-05-05T22:00:09.846Z,13.10
2023-05-05T22:02:41.673Z,13.20
2023-05-05T22:05:11.826Z,13.20
2023-05-05T22:07:40.720Z,13.20
2023-05-05T22:10:10.336Z,13.20
2023-05-05T22:12:39.153Z,13.10
2023-05-05T22:15:08.710Z,13.10
2023-05-05T22:17:37.377Z,13.10
2023-05-05T22:20:06.647Z,13.10
2023-05-05T22:22:36.694Z,13.10
2023-05-05T22:25:05.636Z,13.20
2023-05-05T22:27:34.083Z,13.20
2023-05-05T22:30:02.468Z,13.20
2023-05-05T22:32:30.961Z,13.20
2023-05-05T22:34:59.557Z,13.20
2023-05-05T22:37:28.104Z,13.10
2023-05-05T22:39:57.771Z,13.20
2023-05-05T22:42:26.759Z,13.10
2023-05-05T22:45:12.606Z,13.10
2023-05-05T22:47:41.093Z,13.10
2023-05-05T22:50:10.191Z,13.10
2023-05-05T22:52:38.670Z,13.10
2023-05-05T22:55:09.264Z,13.10
2023-05-05T22:57:38.182Z,13.10
2023-05-05T23:00:08.498Z,13.10
2023-05-05T23:02:37.500Z,13.00
2023-05-05T23:05:06.608Z,13.00
2023-05-05T23:07:35.150Z,13.00
2023-05-05T23:10:03.901Z,13.00
2023-05-05T23:12:33.921Z,13.00
2023-05-05T23:15:02.488Z,12.90
2023-05-05T23:17:30.937Z,12.80
2023-05-05T23:19:59.321Z,12.80
2023-05-05T23:22:27.719Z,12.70
2023-05-05T23:24:56.069Z,12.70
2023-05-05T23:27:24.571Z,12.70
2023-05-05T23:29:54.206Z,12.60
2023-05-05T23:32:22.708Z,12.60
2023-05-05T23:34:51.166Z,12.60
2023-05-05T23:37:19.708Z,12.50
2023-05-05T23:39:47.963Z,12.50
2023-05-05T23:42:16.415Z,12.50
2023-05-05T23:44:44.989Z,12.40
2023-05-05T23:47:14.965Z,12.40
2023-05-05T23:49:43.442Z,12.30
2023-05-05T23:52:12.514Z,12.30
2023-05-05T23:54:41.427Z,12.20
2023-05-05T23:57:10.088Z,12.20
2023-05-05T23:59:38.427Z,12.20
